Time;durP1;ratioP1;P1;durP2;ratioP2;P2;SDS_P1;SDS_P2;PMS_P1;PMS_P2;Temp;Humidity;BMP_temperature;BMP_pressure;BME280_temperature;BME280_humidity;BME280_pressure;Samples;Min_cycle;Max_cycle;Signal;HPM_P1;HPM_P2
2021/10/29 00:01:10;;;;;;;6.85;6.15;;;;;;;10.79;92.57;101339.06;6336035;28;20450;-73
2021/10/29 00:04:14;;;;;;;6.72;6.20;;;;;;;10.79;92.86;101337.19;6336912;28;20359;-73
2021/10/29 00:07:18;;;;;;;9.90;6.10;;;;;;;10.74;92.87;101334.25;6337283;28;20292;-73
2021/10/29 00:10:22;;;;;;;7.00;5.63;;;;;;;10.73;92.93;101338.03;6336921;28;20237;-73
2021/10/29 00:13:28;;;;;;;6.38;5.82;;;;;;;10.74;93.11;101341.59;6336737;28;20182;-73
2021/10/29 00:16:32;;;;;;;6.57;6.10;;;;;;;10.73;93.12;101354.41;6336853;28;20219;-73
2021/10/29 00:19:36;;;;;;;7.47;6.78;;;;;;;10.71;92.98;101345.56;6335701;28;20183;-73
2021/10/29 00:22:40;;;;;;;6.47;5.88;;;;;;;10.71;93.22;101334.66;6335676;28;20250;-74
2021/10/29 00:25:44;;;;;;;6.82;6.22;;;;;;;10.69;93.48;101344.94;6335628;28;20440;-73
2021/10/29 00:28:50;;;;;;;6.85;6.20;;;;;;;10.67;93.47;101349.75;6337452;28;20187;-73
2021/10/29 00:31:54;;;;;;;8.18;6.10;;;;;;;10.66;93.94;101348.06;6341770;28;20251;-73
2021/10/29 00:34:58;;;;;;;8.75;6.47;;;;;;;10.66;93.58;101342.63;6341258;28;20218;-73
2021/10/29 00:38:02;;;;;;;11.10;6.75;;;;;;;10.62;94.17;101335.91;6340177;28;20474;-74
2021/10/29 00:41:09;;;;;;;9.88;6.57;;;;;;;10.70;93.55;101316.59;6340573;28;20183;-73
2021/10/29 00:44:22;;;;;;;11.45;6.80;;;;;;;10.63;94.40;101329.41;6341763;28;20249;-73
2021/10/29 00:47:26;;;;;;;7.68;5.85;;;;;;;10.72;93.87;101330.88;6341197;28;20191;-74
2021/10/29 00:50:30;;;;;;;7.65;6.50;;;;;;;10.67;93.74;101336.13;6340709;28;20183;-73
2021/10/29 00:53:34;;;;;;;8.82;6.38;;;;;;;10.63;93.82;101324.75;6341260;28;20190;-73
2021/10/29 00:56:39;;;;;;;6.53;5.93;;;;;;;10.74;93.48;101320.59;6339825;28;20547;-73
2021/10/29 00:59:45;;;;;;;6.50;6.05;;;;;;;10.71;92.83;101322.91;6339776;28;20378;-73
2021/10/29 01:02:49;;;;;;;8.45;6.28;;;;;;;10.61;93.90;101326.00;6340114;28;20260;-74
2021/10/29 01:05:54;;;;;;;6.68;6.03;;;;;;;10.58;93.60;101319.09;6339675;28;20250;-74
2021/10/29 01:08:58;;;;;;;9.65;6.68;;;;;;;10.60;93.16;101318.91;6340869;28;20183;-72
2021/10/29 01:12:03;;;;;;;6.93;6.03;;;;;;;10.71;92.81;101315.53;6339440;28;20478;-73
2021/10/29 01:15:10;;;;;;;7.05;6.38;;;;;;;10.59;93.55;101317.19;6340422;28;20187;-73
2021/10/29 01:18:21;;;;;;;7.95;6.30;;;;;;;10.60;93.53;101316.16;6339250;28;20534;-73
2021/10/29 01:21:26;;;;;;;6.82;6.22;;;;;;;10.45;94.18;101320.94;6339268;28;20411;-73
2021/10/29 01:24:33;;;;;;;7.70;6.40;;;;;;;10.46;94.12;101308.97;6340438;28;20187;-74
2021/10/29 01:27:37;;;;;;;6.70;6.20;;;;;;;10.45;94.29;101312.75;6340300;28;20246;-73
2021/10/29 01:30:42;;;;;;;7.90;6.75;;;;;;;10.38;94.19;101307.28;6339326;28;20214;-73
2021/10/29 01:33:47;;;;;;;7.70;6.50;;;;;;;10.48;93.23;101306.88;6338900;28;20373;-73
2021/10/29 01:36:52;;;;;;;6.53;5.95;;;;;;;10.37;94.20;101310.22;6339953;28;20253;-73
2021/10/29 01:39:56;;;;;;;6.90;6.35;;;;;;;10.35;94.15;101312.31;6339426;28;20190;-73
2021/10/29 01:43:00;;;;;;;9.65;5.90;;;;;;;10.39;93.84;101317.16;6339465;28;20240;-73
2021/10/29 01:46:05;;;;;;;6.70;6.10;;;;;;;10.37;93.86;101310.22;6339592;28;20210;-73
2021/10/29 01:49:09;;;;;;;7.03;6.43;;;;;;;10.27;94.31;101307.03;6339877;28;20183;-73
2021/10/29 01:52:16;;;;;;;9.98;7.22;;;;;;;10.24;93.79;101305.56;6338448;28;20436;-73
2021/10/29 01:55:20;;;;;;;7.65;6.32;;;;;;;10.29;93.74;101308.50;6339314;28;20187;-73
2021/10/29 01:58:24;;;;;;;6.32;5.82;;;;;;;10.17;94.36;101301.13;6339641;28;20183;-73
2021/10/29 02:01:28;;;;;;;8.02;6.22;;;;;;;10.12;94.63;101303.56;6339436;28;20190;-73
2021/10/29 02:04:33;;;;;;;11.93;6.40;;;;;;;10.07;95.14;101299.56;6364829;28;20186;-73
2021/10/29 02:07:38;;;;;;;6.60;5.88;;;;;;;10.05;94.78;101290.75;6363694;28;20218;-73
2021/10/29 02:10:43;;;;;;;12.63;5.80;;;;;;;10.00;94.77;101293.22;6364417;28;20227;-73
2021/10/29 02:13:47;;;;;;;9.35;5.65;;;;;;;10.09;94.48;101294.72;6364574;28;20190;-73
2021/10/29 02:16:51;;;;;;;6.30;5.70;;;;;;;10.13;94.15;101291.63;6363254;28;20216;-72
2021/10/29 02:19:55;;;;;;;8.30;5.60;;;;;;;10.06;94.48;101281.53;6363850;28;20235;-73
2021/10/29 02:23:00;;;;;;;13.50;5.95;;;;;;;10.11;94.12;101272.75;6364595;28;20182;-73
2021/10/29 02:26:04;;;;;;;6.20;5.20;;;;;;;9.98;94.92;101276.25;6363319;28;20251;-73
2021/10/29 02:29:09;;;;;;;10.38;5.80;;;;;;;10.05;94.45;101268.94;6364233;28;20192;-73
2021/10/29 02:32:13;;;;;;;6.13;5.60;;;;;;;10.04;94.45;101264.50;6362789;28;20509;-72
2021/10/29 02:35:18;;;;;;;8.70;5.97;;;;;;;10.04;94.72;101272.69;6372696;27;20214;-73
2021/10/29 02:38:23;;;;;;;9.52;5.90;;;;;;;9.95;95.02;101263.03;6388224;27;20468;-72
2021/10/29 02:41:29;;;;;;;5.95;5.55;;;;;;;9.95;94.89;101257.56;6388174;27;20485;-72
2021/10/29 02:44:33;;;;;;;6.03;5.63;;;;;;;9.92;94.81;101252.50;6388706;27;20296;-72
2021/10/29 02:47:37;;;;;;;7.15;6.55;;;;;;;9.97;94.36;101244.56;6387978;27;20436;-73
2021/10/29 02:50:41;;;;;;;6.28;5.63;;;;;;;10.03;94.35;101249.22;6389322;27;20188;-72
2021/10/29 02:53:47;;;;;;;9.20;6.10;;;;;;;10.08;94.07;101251.31;6387418;27;20469;-72
2021/10/29 02:56:51;;;;;;;8.18;6.10;;;;;;;10.14;93.21;101255.16;6388168;27;20216;-72
2021/10/29 02:59:55;;;;;;;6.38;5.72;;;;;;;10.12;93.14;101257.22;6389544;27;20182;-73
2021/10/29 03:02:59;;;;;;;6.57;5.97;;;;;;;10.01;94.15;101250.47;6388428;27;20282;-73
2021/10/29 03:06:04;;;;;;;8.10;5.78;;;;;;;9.94;94.80;101244.97;6388665;27;20209;-72
2021/10/29 03:09:10;;;;;;;7.32;5.95;;;;;;;9.97;94.18;101244.56;6388915;27;20192;-72
2021/10/29 03:12:14;;;;;;;6.43;5.82;;;;;;;10.01;93.72;101250.47;6388809;27;20182;-72
2021/10/29 03:15:18;;;;;;;9.13;5.88;;;;;;;9.93;94.45;101240.59;6388483;27;20213;-72
2021/10/29 03:18:22;;;;;;;6.35;5.75;;;;;;;9.94;94.44;101239.50;6387755;27;20192;-72
2021/10/29 03:21:27;;;;;;;7.82;6.35;;;;;;;10.05;93.56;101235.38;6388379;27;20227;-73
2021/10/29 03:24:33;;;;;;;7.85;5.82;;;;;;;9.94;93.68;101238.66;6388339;27;20248;-73
2021/10/29 03:27:37;;;;;;;7.15;6.45;;;;;;;9.91;93.20;101245.38;6387175;27;20580;-73
2021/10/29 03:30:42;;;;;;;7.22;6.32;;;;;;;9.80;95.48;101234.22;6388167;27;20188;-73
2021/10/29 03:33:47;;;;;;;7.25;6.50;;;;;;;9.85;95.25;101235.31;6387598;27;20185;-73
2021/10/29 03:36:51;;;;;;;7.32;6.72;;;;;;;9.70;95.54;101242.78;6387251;27;20254;-73
2021/10/29 03:40:05;;;;;;;7.22;6.43;;;;;;;9.73;95.66;101241.53;6388284;27;20220;-73
2021/10/29 03:43:16;;;;;;;8.48;6.18;;;;;;;9.78;95.77;101250.78;6386922;28;20512;-72
2021/10/29 03:46:22;;;;;;;6.72;6.13;;;;;;;9.79;95.17;101257.06;6387016;28;20426;-73
2021/10/29 03:49:31;;;;;;;6.75;6.10;;;;;;;9.79;95.89;101255.19;6388412;28;20238;-73
2021/10/29 03:52:37;;;;;;;7.30;6.20;;;;;;;9.72;95.81;101248.84;6386980;28;20469;-73
2021/10/29 03:55:45;;;;;;;7.53;6.03;;;;;;;9.82;96.32;101246.59;6386930;28;20181;-73
2021/10/29 03:58:51;;;;;;;9.68;6.68;;;;;;;9.75;96.67;101245.72;6388183;28;20189;-73
2021/10/29 04:01:56;;;;;;;7.47;6.63;;;;;;;9.62;96.83;101244.81;6404029;27;20219;-73
2021/10/29 04:05:00;;;;;;;7.15;6.47;;;;;;;9.79;96.67;101252.44;6390888;27;20203;-73
2021/10/29 04:08:05;;;;;;;7.10;6.40;;;;;;;9.80;96.95;101259.59;6393177;27;20214;-73
2021/10/29 04:11:12;;;;;;;8.35;6.07;;;;;;;9.82;95.11;101252.06;6391881;27;20372;-73
2021/10/29 04:14:20;;;;;;;7.70;6.90;;;;;;;9.74;96.01;101249.50;6392879;27;20226;-73
2021/10/29 04:17:24;;;;;;;8.25;7.43;;;;;;;9.69;97.72;101237.50;6392728;27;20228;-73
2021/10/29 04:20:28;;;;;;;8.55;6.85;;;;;;;9.76;96.94;101247.41;6392704;27;20185;-74
2021/10/29 04:23:34;;;;;;;10.68;6.97;;;;;;;9.67;98.43;101243.16;6392644;27;20242;-73
2021/10/29 04:26:40;;;;;;;8.65;6.85;;;;;;;9.57;99.17;101247.28;6392470;27;20262;-72
2021/10/29 04:29:46;;;;;;;11.27;6.90;;;;;;;9.66;99.21;101257.81;6392280;27;20262;-75
2021/10/29 04:32:50;;;;;;;9.95;7.20;;;;;;;9.62;99.12;101256.56;6392529;27;20249;-73
2021/10/29 04:35:55;;;;;;;10.82;7.57;;;;;;;9.72;98.91;101256.19;6391300;27;20209;-73
2021/10/29 04:38:59;;;;;;;9.13;7.20;;;;;;;9.76;98.94;101262.91;6392200;27;20185;-72
2021/10/29 04:42:05;;;;;;;8.93;7.60;;;;;;;9.82;98.87;101257.50;6377911;27;20494;-73
2021/10/29 04:45:10;;;;;;;8.98;8.05;;;;;;;9.79;99.27;101257.91;6389279;27;20252;-73
2021/10/29 04:48:16;;;;;;;15.77;8.63;;;;;;;9.86;99.77;101258.75;6391853;27;20205;-73
2021/10/29 04:51:20;;;;;;;14.00;8.77;;;;;;;10.02;98.61;101263.88;6392341;27;20182;-73
2021/10/29 04:54:24;;;;;;;12.55;9.50;;;;;;;9.96;99.52;101248.31;6390851;27;20442;-73
2021/10/29 04:57:34;;;;;;;14.23;8.93;;;;;;;9.89;99.91;101250.19;6391781;27;20217;-73
2021/10/29 05:00:38;;;;;;;15.85;10.43;;;;;;;9.89;100.00;101242.00;6392085;27;20227;-73
2021/10/29 05:03:44;;;;;;;14.57;9.52;;;;;;;9.80;100.00;101237.78;6391666;27;20248;-73
2021/10/29 05:06:48;;;;;;;15.18;10.00;;;;;;;9.78;100.00;101250.78;6391010;27;20185;-73
2021/10/29 05:09:52;;;;;;;14.00;10.30;;;;;;;9.83;100.00;101250.16;6391494;27;20216;-73
2021/10/29 05:12:58;;;;;;;15.27;10.02;;;;;;;9.82;100.00;101245.75;6391630;27;20182;-73
2021/10/29 05:16:03;;;;;;;19.35;10.70;;;;;;;9.93;100.00;101237.84;6391030;27;20189;-73
2021/10/29 05:19:08;;;;;;;14.52;9.93;;;;;;;9.85;100.00;101251.66;6390580;27;20185;-73
2021/10/29 05:22:13;;;;;;;15.95;10.65;;;;;;;9.83;100.00;101245.56;6391542;27;20218;-74
2021/10/29 05:25:17;;;;;;;14.52;9.75;;;;;;;9.96;100.00;101245.59;6390215;27;20249;-74
2021/10/29 05:28:23;;;;;;;19.88;11.00;;;;;;;9.97;100.00;101247.28;6390765;27;20213;-73
2021/10/29 05:31:28;;;;;;;16.88;10.48;;;;;;;9.90;100.00;101243.72;6389942;27;20426;-73
2021/10/29 05:34:32;;;;;;;14.05;10.02;;;;;;;9.85;100.00;101239.91;6389910;27;20518;-73
2021/10/29 05:37:39;;;;;;;17.13;10.25;;;;;;;9.84;100.00;101233.59;6390815;27;20186;-73
2021/10/29 05:40:43;;;;;;;19.35;11.18;;;;;;;9.84;100.00;101236.34;6390829;27;20182;-73
2021/10/29 05:43:48;;;;;;;18.40;10.27;;;;;;;9.94;100.00;101231.34;6362605;28;20279;-73
2021/10/29 05:46:53;;;;;;;17.80;9.45;;;;;;;9.95;100.00;101233.03;6363891;28;20245;-72
2021/10/29 05:49:58;;;;;;;15.95;10.27;;;;;;;9.81;100.00;101242.19;6364921;28;20269;-73
2021/10/29 05:53:07;;;;;;;13.38;9.55;;;;;;;9.82;100.00;101246.59;6363927;28;20182;-73
2021/10/29 05:56:13;;;;;;;13.68;9.60;;;;;;;9.86;100.00;101250.59;6364775;28;20182;-73
2021/10/29 05:59:19;;;;;;;12.02;9.20;;;;;;;9.97;100.00;101252.75;6365069;28;20194;-73
2021/10/29 06:02:24;;;;;;;16.38;9.80;;;;;;;9.91;100.00;101256.28;6363439;28;20187;-73
2021/10/29 06:05:29;;;;;;;13.45;8.80;;;;;;;9.89;100.00;101252.91;6364044;28;20258;-73
2021/10/29 06:08:33;;;;;;;18.42;9.85;;;;;;;9.78;100.00;101260.84;6364208;28;20242;-73
2021/10/29 06:11:38;;;;;;;13.75;9.02;;;;;;;10.02;99.82;101258.44;6363335;28;20475;-73
2021/10/29 06:14:44;;;;;;;10.82;8.27;;;;;;;9.83;100.00;101247.44;6364494;28;20193;-73
2021/10/29 06:17:48;;;;;;;12.90;9.00;;;;;;;9.92;100.00;101257.97;6363070;28;20500;-73
2021/10/29 06:20:56;;;;;;;14.20;9.07;;;;;;;9.96;99.63;101253.78;6364149;28;20245;-73
2021/10/29 06:24:04;;;;;;;13.55;8.90;;;;;;;10.05;98.91;101257.19;6363340;28;20218;-73
2021/10/29 06:28:07;;;;;;;14.68;8.57;;;;;;;9.92;99.46;101257.97;6362181;28;20411;-73
2021/10/29 06:30:39;;;;;;;13.25;8.52;;;;;;;9.98;99.68;101254.44;6363400;28;20230;-73
2021/10/29 06:33:43;;;;;;;12.32;8.88;;;;;;;10.01;99.62;101262.19;6362898;27;20205;-73
2021/10/29 06:36:48;;;;;;;15.40;8.73;;;;;;;10.07;98.87;101261.38;6363909;28;20189;-73
2021/10/29 06:39:53;;;;;;;11.75;8.35;;;;;;;10.15;97.78;101262.28;6363344;28;20221;-73
2021/10/29 06:43:00;;;;;;;11.63;8.70;;;;;;;10.15;97.41;101274.03;6372936;27;20240;-73
2021/10/29 06:46:16;;;;;;;13.50;8.77;;;;;;;10.05;98.39;101274.38;6389735;27;20188;-75
2021/10/29 06:51:58;;;;;;;15.45;9.25;;;;;;;9.98;99.07;101262.63;6388069;27;20269;-74
2021/10/29 06:59:39;;;;;;;16.42;9.95;;;;;;;10.13;98.42;101280.72;6388515;27;20205;-74
2021/10/29 07:40:07;;;;;;;13.93;8.95;;;;;;;10.41;96.74;101300.56;6387004;27;20235;-74
2021/10/29 07:43:22;;;;;;;17.25;9.05;;;;;;;10.49;96.08;101303.09;6387629;27;20301;-73
2021/10/29 07:46:28;;;;;;;15.70;9.75;;;;;;;10.48;96.21;101312.31;6386922;28;20369;-73
2021/10/29 07:49:33;;;;;;;16.05;9.85;;;;;;;10.53;96.01;101307.09;6387760;28;20237;-73
2021/10/29 07:52:41;;;;;;;16.25;10.18;;;;;;;10.52;95.85;101302.72;6387123;28;20207;-73
2021/10/29 07:55:45;;;;;;;16.27;10.32;;;;;;;10.34;97.56;101305.16;6387076;28;20203;-72
2021/10/29 07:58:50;;;;;;;16.73;10.02;;;;;;;10.37;97.77;101307.50;6386615;28;20195;-73
2021/10/29 08:01:54;;;;;;;17.30;10.52;;;;;;;10.40;97.70;101312.53;6387410;28;20250;-72
2021/10/29 08:04:59;;;;;;;19.17;10.45;;;;;;;10.26;99.03;101297.16;6387887;28;20245;-73
2021/10/29 08:08:05;;;;;;;20.98;10.65;;;;;;;10.28;99.44;101295.06;6387586;28;20181;-74
2021/10/29 08:11:09;;;;;;;21.00;10.95;;;;;;;10.35;99.02;101285.03;6388336;28;20220;-73
2021/10/29 08:14:15;;;;;;;18.67;11.10;;;;;;;10.38;99.09;101295.50;6387162;28;20390;-73
2021/10/29 08:17:20;;;;;;;21.08;11.00;;;;;;;10.38;99.05;101295.50;6387922;28;20182;-73
2021/10/29 08:20:24;;;;;;;17.92;9.80;;;;;;;10.42;99.47;101289.47;6387070;28;20192;-73
2021/10/29 08:23:30;;;;;;;20.80;11.00;;;;;;;10.37;99.61;101288.38;6387576;28;20182;-73
2021/10/29 08:26:35;;;;;;;21.52;10.75;;;;;;;10.35;100.00;101285.03;6387503;28;20181;-73
2021/10/29 08:29:40;;;;;;;17.30;10.40;;;;;;;10.48;99.51;101287.78;6386486;28;20270;-73
2021/10/29 08:32:47;;;;;;;18.85;10.90;;;;;;;10.63;97.73;101274.81;6386393;28;20409;-74
2021/10/29 08:35:51;;;;;;;20.38;10.63;;;;;;;10.36;99.92;101282.09;6387596;28;20261;-73
2021/10/29 08:38:57;;;;;;;20.92;10.57;;;;;;;10.59;99.15;101281.72;6387604;28;20182;-73
2021/10/29 08:42:10;;;;;;;18.38;10.63;;;;;;;10.65;98.20;101286.38;6371404;28;20262;-73
2021/10/29 08:45:15;;;;;;;17.23;10.07;;;;;;;10.70;98.11;101289.31;6385655;28;20182;-73
2021/10/29 08:48:21;;;;;;;18.92;10.38;;;;;;;10.78;96.98;101280.94;6386182;28;20182;-72
2021/10/29 08:51:25;;;;;;;24.98;10.82;;;;;;;10.70;98.62;101278.41;6390345;27;20229;-73
2021/10/29 08:54:32;;;;;;;17.15;9.93;;;;;;;10.75;98.24;101270.44;6391119;27;20181;-72
2021/10/29 08:57:36;;;;;;;18.77;9.57;;;;;;;10.89;96.51;101277.56;6390753;27;20204;-73
2021/10/29 09:00:43;;;;;;;15.68;9.48;;;;;;;10.88;96.84;101265.00;6390683;27;20383;-73
2021/10/29 09:03:54;;;;;;;16.02;10.38;;;;;;;10.89;97.03;101258.47;6391638;27;20188;-73
2021/10/29 09:07:05;;;;;;;23.80;10.32;;;;;;;11.00;96.05;101259.75;6392028;27;20217;-72
2021/10/29 09:17:43;;;;;;;18.65;10.20;;;;;;;10.62;100.00;101254.03;6391108;27;20182;-73
2021/10/29 09:31:27;;;;;;;16.30;10.20;;;;;;;10.67;99.76;101246.91;6391119;27;20268;-72
2021/10/29 09:34:32;;;;;;;17.45;10.48;;;;;;;10.74;99.77;101246.91;6390439;27;20182;-74
2021/10/29 09:37:55;;;;;;;21.52;11.43;;;;;;;10.76;100.00;101241.25;6390611;27;20185;-73
2021/10/29 09:41:22;;;;;;;18.30;11.30;;;;;;;10.85;99.23;101243.56;6390944;27;20230;-73
2021/10/29 09:44:44;;;;;;;19.33;10.90;;;;;;;11.00;98.29;101246.94;6371061;27;20298;-73
2021/10/29 09:47:56;;;;;;;21.38;10.88;;;;;;;11.03;97.67;101246.53;6390846;27;20189;-73
2021/10/29 09:51:06;;;;;;;21.73;11.55;;;;;;;10.90;98.85;101246.50;6390346;27;20242;-73
2021/10/29 09:54:15;;;;;;;21.05;11.02;;;;;;;10.70;100.00;101240.19;6389310;27;20182;-77
2021/10/29 09:57:21;;;;;;;20.95;12.05;;;;;;;10.69;99.94;101238.50;6390325;27;20226;-73
2021/10/29 10:00:30;;;;;;;21.60;11.82;;;;;;;10.90;98.90;101241.06;6389924;27;20193;-73
2021/10/29 10:03:35;;;;;;;22.30;12.05;;;;;;;11.04;98.37;101240.00;6390233;27;20182;-73
2021/10/29 10:06:41;;;;;;;21.83;12.75;;;;;;;11.09;97.51;101226.53;6390451;27;20185;-73
2021/10/29 10:09:46;;;;;;;21.88;12.48;;;;;;;11.18;96.74;101222.56;6390395;27;20189;-73
2021/10/29 10:12:52;;;;;;;23.52;12.65;;;;;;;11.21;96.31;101222.13;6390233;27;20256;-73
2021/10/29 10:16:02;;;;;;;21.38;13.13;;;;;;;11.22;96.10;101223.81;6390419;27;20250;-73
2021/10/29 10:19:07;;;;;;;25.33;12.95;;;;;;;11.06;97.75;101218.78;6389758;27;20182;-73
2021/10/29 10:22:16;;;;;;;21.48;11.90;;;;;;;10.96;97.78;101223.00;6389551;27;20186;-73
2021/10/29 10:25:37;;;;;;;25.98;13.60;;;;;;;11.10;97.00;101213.72;6389907;27;20260;-73
2021/10/29 10:28:54;;;;;;;22.48;12.30;;;;;;;11.15;96.92;101227.59;6389583;27;20216;-73
2021/10/29 10:45:55;;;;;;;22.27;12.43;;;;;;;11.13;96.26;101205.97;6354495;28;20481;-73
2021/10/29 10:49:06;;;;;;;23.05;11.55;;;;;;;11.06;96.33;101205.16;6362458;28;20433;-73
2021/10/29 10:52:15;;;;;;;17.50;11.57;;;;;;;10.95;96.37;101216.69;6363666;28;20285;-73
2021/10/29 10:55:24;;;;;;;22.17;12.20;;;;;;;10.98;95.30;101210.81;6363544;28;20214;-73
2021/10/29 10:58:39;;;;;;;22.85;12.30;;;;;;;10.85;95.48;101202.63;6362908;28;20182;-73
2021/10/29 11:05:20;;;;;;;19.30;11.77;;;;;;;10.83;94.53;101212.91;6362926;28;20182;-74
2021/10/29 11:11:56;;;;;;;20.77;12.25;;;;;;;10.97;93.35;101192.75;6387591;27;20205;-73
2021/10/29 11:15:07;;;;;;;23.60;12.27;;;;;;;11.01;93.22;101194.03;6387124;27;20484;-73
2021/10/29 11:18:30;;;;;;;21.52;12.45;;;;;;;10.96;93.66;101185.63;6388410;27;20186;-73
2021/10/29 11:21:46;;;;;;;21.65;12.50;;;;;;;10.93;93.27;101191.50;6387540;27;20192;-73
2021/10/29 11:24:51;;;;;;;25.65;12.60;;;;;;;11.14;92.37;101183.09;6387406;27;20381;-74
2021/10/29 11:27:57;;;;;;;19.33;11.90;;;;;;;11.15;91.43;101184.75;6388602;27;20181;-73
2021/10/29 11:31:02;;;;;;;22.83;13.15;;;;;;;11.03;92.69;101175.53;6387661;27;20236;-73
2021/10/29 11:34:12;;;;;;;22.70;13.10;;;;;;;10.99;93.04;101171.53;6388787;27;20190;-73
2021/10/29 11:37:18;;;;;;;22.13;12.77;;;;;;;11.05;92.77;101178.88;6387010;27;20454;-73
2021/10/29 11:40:22;;;;;;;24.80;13.23;;;;;;;11.08;92.36;101167.53;6387998;27;20261;-73
2021/10/29 11:43:29;;;;;;;29.88;13.45;;;;;;;11.32;90.39;101169.56;6387104;27;20274;-73
2021/10/29 11:46:35;;;;;;;24.88;13.05;;;;;;;11.24;90.74;101167.09;6388202;28;20213;-73
2021/10/29 11:49:39;;;;;;;25.90;13.25;;;;;;;11.15;91.09;101173.81;6386920;28;20469;-73
2021/10/29 11:52:45;;;;;;;22.85;13.63;;;;;;;11.14;91.80;101166.69;6387862;28;20212;-74
2021/10/29 11:55:55;;;;;;;27.00;14.43;;;;;;;11.21;91.49;101162.06;6388201;28;20260;-74
2021/10/29 11:59:12;;;;;;;27.23;13.98;;;;;;;11.16;91.61;101150.09;6388331;28;20254;-73
2021/10/29 12:05:58;;;;;;;23.83;13.98;;;;;;;11.32;91.01;101153.19;6386824;28;20392;-73
2021/10/29 12:09:04;;;;;;;28.70;14.57;;;;;;;11.39;90.12;101146.88;6386630;28;20204;-74
2021/10/29 12:12:17;;;;;;;33.58;15.95;;;;;;;11.42;89.62;101146.44;6387912;28;20216;-74
2021/10/29 12:15:25;;;;;;;28.13;14.80;;;;;;;11.44;89.78;101138.88;6387150;28;20181;-73
2021/10/29 12:18:37;;;;;;;34.20;16.13;;;;;;;11.58;88.87;101113.19;6386513;28;20370;-74
2021/10/29 12:21:47;;;;;;;27.10;15.80;;;;;;;11.57;88.77;101112.34;6386630;28;20540;-72
2021/10/29 12:24:57;;;;;;;30.92;16.10;;;;;;;11.46;89.53;101106.69;6388318;27;20245;-72
2021/10/29 12:28:05;;;;;;;27.50;16.10;;;;;;;11.49;88.76;101119.94;6391438;27;20552;-72
2021/10/29 12:31:16;;;;;;;36.00;16.58;;;;;;;11.53;89.68;101115.72;6391310;27;20205;-75
2021/10/29 12:34:45;;;;;;;29.40;16.52;;;;;;;11.48;89.41;101118.28;6391216;27;20528;-72
2021/10/29 12:52:03;;;;;;;30.40;16.35;;;;;;;11.66;87.91;101093.78;6390844;27;20213;-73
2021/10/29 12:58:55;;;;;;;33.83;16.98;;;;;;;11.49;88.30;101076.22;6390646;27;20217;-73
2021/10/29 13:02:01;;;;;;;32.33;16.38;;;;;;;11.56;87.58;101071.56;6391104;27;20185;-74
2021/10/29 13:05:10;;;;;;;32.90;16.98;;;;;;;11.45;87.45;101055.88;6390546;27;20280;-73
2021/10/29 13:08:18;;;;;;;30.55;17.05;;;;;;;11.47;87.66;101068.25;6391518;27;20258;-73
2021/10/29 13:11:24;;;;;;;27.25;16.15;;;;;;;11.54;87.57;101068.22;6391351;27;20243;-73
2021/10/29 13:14:33;;;;;;;31.85;16.27;;;;;;;11.57;87.53;101059.56;6391261;27;20222;-73
2021/10/29 13:17:42;;;;;;;32.05;16.85;;;;;;;11.46;87.52;101057.53;6391764;27;20186;-73
2021/10/29 13:21:14;;;;;;;28.27;16.10;;;;;;;11.48;87.37;101060.91;6393807;27;20192;-73
2021/10/29 13:35:23;;;;;;;31.90;17.52;;;;;;;11.45;86.13;101058.59;6358848;28;20225;-73
2021/10/29 13:52:46;;;;;;;31.10;16.25;;;;;;;11.40;86.00;101067.41;6357710;28;20571;-73
2021/10/29 13:56:06;;;;;;;32.15;17.63;;;;;;;11.27;86.57;101062.03;6357594;28;20594;-73
2021/10/29 13:59:26;;;;;;;38.50;16.95;;;;;;;11.25;86.25;101075.88;6358037;28;20218;-73
2021/10/29 14:02:59;;;;;;;33.20;16.63;;;;;;;11.29;85.45;101076.31;6358650;28;20214;-72
2021/10/29 14:29:47;;;;;;;32.08;17.77;;;;;;;10.83;88.05;101108.34;6356852;28;20234;-73
2021/10/29 14:32:54;;;;;;;38.75;18.13;;;;;;;10.85;88.93;101120.72;6357489;28;20214;-73
2021/10/29 14:36:00;;;;;;;35.85;17.38;;;;;;;10.68;89.42;101128.50;6357842;28;20249;-73
2021/10/29 14:39:09;;;;;;;39.72;17.70;;;;;;;10.78;88.68;101117.19;6356294;28;20474;-73
2021/10/29 14:42:15;;;;;;;33.90;17.25;;;;;;;10.73;89.35;101111.53;6342548;28;20500;-73
2021/10/29 14:45:24;;;;;;;35.90;17.58;;;;;;;10.74;88.82;101115.91;6340766;28;20236;-73
2021/10/29 14:48:38;;;;;;;37.28;17.50;;;;;;;10.77;88.83;101126.41;6340741;28;20183;-72
2021/10/29 14:52:10;;;;;;;42.75;18.50;;;;;;;10.68;88.64;101128.50;6339258;28;20270;-74
2021/10/29 15:02:30;;;;;;;39.40;17.80;;;;;;;10.64;89.86;101129.13;6339105;28;20207;-73
2021/10/29 15:16:04;;;;;;;43.42;18.60;;;;;;;10.77;88.89;101115.50;6340415;28;20183;-75
2021/10/29 15:29:25;;;;;;;37.15;17.02;;;;;;;10.75;88.43;101128.50;6328641;28;20502;-74
2021/10/29 15:42:51;;;;;;;37.03;18.30;;;;;;;10.65;89.41;101144.47;6338780;28;20222;-74
2021/10/29 15:46:04;;;;;;;34.72;16.80;;;;;;;10.72;88.89;101134.38;6339009;28;20404;-74
2021/10/29 15:49:20;;;;;;;37.80;19.83;;;;;;;10.75;89.02;101128.50;6338342;28;20189;-73
2021/10/29 15:52:24;;;;;;;30.25;16.42;;;;;;;10.72;88.23;101145.31;6338276;28;20246;-73
2021/10/29 15:55:35;;;;;;;27.30;15.50;;;;;;;10.73;88.62;101141.53;6339129;28;20189;-74
2021/10/29 15:58:44;;;;;;;27.52;15.93;;;;;;;10.75;88.54;101144.88;6338824;28;20186;-74
2021/10/29 16:01:54;;;;;;;26.90;15.65;;;;;;;10.66;88.96;101140.69;6337953;28;20482;-74
2021/10/29 16:18:27;;;;;;;28.67;15.52;;;;;;;10.77;88.13;101153.69;6338245;28;20183;-74
2021/10/29 16:21:31;;;;;;;23.58;13.40;;;;;;;10.83;87.29;101162.94;6338393;28;20187;-74
2021/10/29 16:24:41;;;;;;;23.50;13.80;;;;;;;10.87;87.61;101159.56;6338637;28;20204;-74
2021/10/29 16:27:52;;;;;;;23.83;13.68;;;;;;;10.84;87.09;101160.00;6338345;28;20187;-73
2021/10/29 16:30:56;;;;;;;26.17;14.07;;;;;;;10.85;87.57;101167.13;6337727;28;20287;-75
2021/10/29 16:34:01;;;;;;;22.30;14.18;;;;;;;10.87;87.00;101161.47;6338109;28;20183;-73
2021/10/29 16:37:06;;;;;;;22.02;13.30;;;;;;;10.85;87.27;101150.75;6337099;28;20273;-73
2021/10/29 16:40:22;;;;;;;28.58;15.20;;;;;;;10.88;86.92;101144.88;6338210;28;20271;-73
2021/10/29 16:43:27;;;;;;;28.25;14.70;;;;;;;10.92;86.30;101146.13;6337485;28;20257;-74
2021/10/29 16:46:32;;;;;;;23.35;14.02;;;;;;;10.91;86.65;101144.47;6336758;28;20427;-73
2021/10/29 16:49:38;;;;;;;20.58;14.15;;;;;;;10.73;88.13;101157.91;6337569;28;20245;-73
2021/10/29 16:52:43;;;;;;;26.00;13.88;;;;;;;10.81;87.98;101149.50;6337745;28;20217;-72
2021/10/29 16:55:47;;;;;;;21.98;13.68;;;;;;;10.84;88.24;101159.16;6338223;28;20186;-73
2021/10/29 16:58:51;;;;;;;22.08;12.85;;;;;;;10.86;87.49;101157.88;6337718;28;20187;-73
2021/10/29 17:01:55;;;;;;;25.00;13.68;;;;;;;10.93;87.24;101147.81;6336809;28;20486;-74
2021/10/29 17:05:03;;;;;;;23.77;13.35;;;;;;;10.89;87.26;101157.47;6337400;28;20213;-74
2021/10/29 17:08:13;;;;;;;22.30;13.15;;;;;;;10.81;88.71;101157.69;6336519;28;20189;-74
2021/10/29 17:11:17;;;;;;;24.45;13.43;;;;;;;10.67;89.19;101164.19;6336521;28;20440;-73
2021/10/29 17:14:21;;;;;;;23.23;14.30;;;;;;;10.74;88.69;101158.72;6337549;28;20183;-74
2021/10/29 17:17:25;;;;;;;21.63;14.18;;;;;;;10.58;90.15;101168.16;6336526;28;20490;-74
2021/10/29 17:20:31;;;;;;;29.98;14.95;;;;;;;10.63;89.89;101165.69;6337406;28;20214;-74
2021/10/29 17:23:38;;;;;;;26.15;14.73;;;;;;;10.69;89.52;101175.75;6337482;28;20183;-75
2021/10/29 17:26:42;;;;;;;24.75;14.02;;;;;;;10.61;89.98;101181.41;6336932;28;20189;-74
2021/10/29 17:29:47;;;;;;;24.65;14.95;;;;;;;10.61;90.08;101176.78;6337123;28;20307;-75
2021/10/29 17:32:53;;;;;;;25.33;14.45;;;;;;;10.66;89.40;101184.34;6337505;28;20276;-75
2021/10/29 17:35:59;;;;;;;25.05;14.43;;;;;;;10.46;90.39;101183.47;6336141;28;20485;-75
2021/10/29 17:39:04;;;;;;;27.10;14.95;;;;;;;10.62;89.29;101177.63;6336665;28;20190;-76
2021/10/29 17:42:11;;;;;;;25.75;14.95;;;;;;;10.61;89.29;101176.78;6337029;28;20193;-75
2021/10/29 17:45:17;;;;;;;25.60;14.65;;;;;;;10.34;90.50;101179.69;6336052;28;20458;-74